Time;durP1;ratioP1;P1;durP2;ratioP2;P2;SDS_P1;SDS_P2;PMS_P1;PMS_P2;Temp;Humidity;BMP_temperature;BMP_pressure;BME280_temperature;BME280_humidity;BME280_pressure;Samples;Min_cycle;Max_cycle;Signal;HPM_P1;HPM_P2
2022/06/02 00:02:12;;;;;;;5.10;2.40;;;;;;;20.23;42.81;98878.28;6921272;28;20683;-78
2022/06/02 00:05:56;;;;;;;3.60;1.90;;;;;;;20.23;41.18;98878.28;6921365;28;20649;-78
2022/06/02 00:09:29;;;;;;;1.93;1.83;;;;;;;20.42;41.00;98880.31;6920788;28;20693;-78
2022/06/02 00:12:53;;;;;;;3.70;1.90;;;;;;;20.47;40.15;98891.31;6920835;28;20214;-78
2022/06/02 00:16:24;;;;;;;3.07;2.10;;;;;;;20.47;40.49;98885.81;6922498;28;20641;-78
2022/06/02 00:19:49;;;;;;;3.23;1.80;;;;;;;20.51;39.72;98902.56;6920437;28;20227;-78
2022/06/02 00:23:26;;;;;;;2.57;1.80;;;;;;;20.54;39.38;98882.81;6920602;28;20273;-77
2022/06/02 00:26:56;;;;;;;1.67;1.57;;;;;;;20.60;38.82;98884.50;6920419;28;20222;-78
2022/06/02 00:30:21;;;;;;;2.57;1.87;;;;;;;20.44;39.35;98889.09;6920337;28;20230;-78
2022/06/02 00:34:04;;;;;;;1.83;1.63;;;;;;;20.71;39.37;98899.91;6922169;28;20220;-78
2022/06/02 00:37:31;;;;;;;2.20;2.00;;;;;;;20.94;38.85;98894.78;6920717;28;20192;-78
2022/06/02 00:40:53;;;;;;;2.20;2.00;;;;;;;20.90;38.47;98890.13;6920830;28;20256;-78
2022/06/02 00:44:21;;;;;;;2.17;1.80;;;;;;;21.02;38.48;98896.19;6920937;28;20749;-78
2022/06/02 00:47:51;;;;;;;2.07;1.57;;;;;;;20.83;39.29;98892.25;6919138;28;20213;-78
2022/06/02 00:51:15;;;;;;;2.03;1.80;;;;;;;20.79;38.81;98900.19;6920379;28;20231;-76
2022/06/02 00:58:29;;;;;;;2.10;1.70;;;;;;;20.88;38.33;98887.66;6931829;28;20184;-76
2022/06/02 01:01:51;;;;;;;2.37;1.90;;;;;;;20.91;39.02;98900.81;6924463;28;20236;-76
2022/06/02 01:05:13;;;;;;;2.07;1.80;;;;;;;20.59;40.57;98889.16;6920657;28;20210;-76
2022/06/02 01:08:48;;;;;;;2.10;2.00;;;;;;;20.53;40.69;98900.34;6919388;28;20271;-76
2022/06/02 01:12:21;;;;;;;1.53;1.43;;;;;;;20.50;41.11;98903.63;6920062;28;20208;-77
2022/06/02 01:15:51;;;;;;;3.17;1.67;;;;;;;20.41;41.22;98916.19;6919472;28;20334;-76
2022/06/02 01:19:44;;;;;;;1.90;1.80;;;;;;;20.18;41.82;98909.22;6917731;28;20231;-76
2022/06/02 01:23:48;;;;;;;1.90;1.80;;;;;;;19.93;42.25;98908.16;6920272;28;20192;-76
2022/06/02 01:27:32;;;;;;;1.93;1.83;;;;;;;19.86;42.33;98922.06;6918854;28;20216;-76
2022/06/02 01:31:01;;;;;;;2.80;1.97;;;;;;;20.08;41.72;98919.25;6919365;28;20910;-76
2022/06/02 01:34:33;;;;;;;2.50;1.90;;;;;;;20.23;41.48;98913.88;6919816;28;20558;-76
2022/06/02 01:38:01;;;;;;;1.77;1.67;;;;;;;19.94;42.12;98920.75;6919033;28;20252;-76
2022/06/02 01:41:29;;;;;;;2.20;1.90;;;;;;;19.68;42.74;98924.34;6919809;28;20228;-76
2022/06/02 01:44:58;;;;;;;1.90;1.70;;;;;;;19.77;42.73;98920.91;6919686;28;20573;-76
2022/06/02 01:48:24;;;;;;;1.87;1.77;;;;;;;19.85;42.03;98914.09;6918952;28;20207;-76
2022/06/02 01:51:54;;;;;;;3.13;1.80;;;;;;;20.10;41.17;98922.56;6919467;28;20234;-76
2022/06/02 01:55:43;;;;;;;2.93;2.00;;;;;;;19.82;42.00;98933.81;6918922;28;20222;-76
2022/06/02 01:59:18;;;;;;;2.03;1.83;;;;;;;19.61;42.64;98931.97;6922560;28;20227;-76
2022/06/02 02:02:49;;;;;;;2.27;2.10;;;;;;;19.62;42.46;98934.44;6924050;28;20338;-76
2022/06/02 02:06:19;;;;;;;2.07;1.90;;;;;;;19.52;42.40;98939.00;6924510;28;20192;-76
2022/06/02 02:09:53;;;;;;;2.80;2.43;;;;;;;19.38;43.27;98949.53;6924074;28;20255;-76
2022/06/02 02:13:23;;;;;;;2.13;1.70;;;;;;;19.46;43.17;98949.06;6924007;28;20555;-76
2022/06/02 02:16:51;;;;;;;2.40;1.80;;;;;;;19.33;42.92;98948.66;6923985;28;20191;-76
2022/06/02 02:20:22;;;;;;;1.80;1.70;;;;;;;19.19;42.85;98959.13;6921660;28;20231;-76
2022/06/02 02:23:57;;;;;;;3.70;2.30;;;;;;;18.90;43.80;98960.44;6923233;28;20276;-76
2022/06/02 02:27:22;;;;;;;2.00;1.90;;;;;;;19.06;44.37;98956.81;6923818;28;20223;-77
2022/06/02 02:30:57;;;;;;;2.07;1.87;;;;;;;19.04;45.27;98950.75;6923699;28;20353;-78
2022/06/02 02:34:34;;;;;;;3.60;2.30;;;;;;;18.89;46.00;98956.03;6924074;28;20293;-78
2022/06/02 02:37:59;;;;;;;2.63;2.30;;;;;;;18.85;45.79;98970.44;6923581;28;20203;-78
2022/06/02 02:41:25;;;;;;;5.00;2.23;;;;;;;18.80;46.41;98954.03;6923562;28;20259;-78
2022/06/02 02:45:01;;;;;;;4.80;2.50;;;;;;;18.74;46.79;98963.22;6938698;28;20195;-78
2022/06/02 02:48:30;;;;;;;4.43;2.40;;;;;;;18.33;48.36;98971.94;6950147;28;20249;-78
2022/06/02 02:51:56;;;;;;;2.90;2.50;;;;;;;18.16;48.72;98968.34;6952620;28;20234;-78
2022/06/02 02:55:20;;;;;;;2.60;2.33;;;;;;;18.43;48.04;98969.31;6957480;28;20202;-77
2022/06/02 02:58:46;;;;;;;2.20;2.00;;;;;;;18.25;47.81;98956.75;6963695;28;20209;-77
2022/06/02 03:02:15;;;;;;;2.03;1.93;;;;;;;17.80;49.14;98966.94;6967502;28;20223;-78
2022/06/02 03:05:49;;;;;;;2.43;2.23;;;;;;;17.92;49.64;98975.88;6959735;28;20214;-78
2022/06/02 03:09:14;;;;;;;3.43;2.40;;;;;;;18.05;49.41;98978.25;6958972;28;20248;-78
2022/06/02 03:12:59;;;;;;;2.87;2.10;;;;;;;18.17;48.99;98981.72;6955446;28;20214;-77
2022/06/02 03:16:23;;;;;;;5.57;2.50;;;;;;;17.48;50.70;98967.72;6959518;28;20183;-77
2022/06/02 03:19:49;;;;;;;2.30;2.10;;;;;;;18.00;49.67;98974.66;6956728;28;20227;-77
2022/06/02 03:23:30;;;;;;;2.67;2.47;;;;;;;17.71;49.60;98992.16;6959339;28;20195;-77
2022/06/02 03:27:10;;;;;;;2.53;2.33;;;;;;;17.81;49.07;98993.13;6957998;28;20206;-78
2022/06/02 03:30:51;;;;;;;2.27;2.07;;;;;;;18.01;48.81;98993.50;6955761;28;20234;-77
2022/06/02 03:34:23;;;;;;;2.53;2.30;;;;;;;18.20;47.88;98992.16;6868254;28;20207;-78
2022/06/02 03:37:52;;;;;;;3.00;2.10;;;;;;;18.19;48.34;98990.53;6873650;28;20252;-78
2022/06/02 03:41:27;;;;;;;2.70;2.33;;;;;;;17.68;50.04;98992.66;6870680;28;20248;-78
2022/06/02 03:45:14;;;;;;;2.20;2.10;;;;;;;17.88;48.68;98993.00;6870246;28;20432;-78
2022/06/02 03:48:50;;;;;;;3.23;2.10;;;;;;;18.14;48.22;99003.25;6867218;28;20213;-78
2022/06/02 03:52:23;;;;;;;2.67;2.40;;;;;;;17.89;49.04;98992.75;6870217;28;20220;-78
2022/06/02 03:55:54;;;;;;;2.33;2.20;;;;;;;18.03;48.54;99004.97;6871098;28;20240;-78
2022/06/02 03:59:35;;;;;;;2.30;2.10;;;;;;;18.07;48.32;99003.44;6871556;28;20416;-78
2022/06/02 04:03:02;;;;;;;2.97;2.17;;;;;;;17.94;48.95;99011.94;6865901;28;20244;-78
2022/06/02 04:06:34;;;;;;;2.77;2.53;;;;;;;17.76;49.75;99006.69;6865964;28;20205;-78
2022/06/02 04:10:02;;;;;;;4.03;2.50;;;;;;;18.08;48.69;99017.88;6882573;28;20238;-78
2022/06/02 04:13:40;;;;;;;2.37;2.17;;;;;;;17.92;48.62;98997.69;6950071;28;20190;-77
2022/06/02 04:17:06;;;;;;;3.20;2.80;;;;;;;17.87;49.05;99005.00;6950139;28;20192;-78
2022/06/02 04:20:41;;;;;;;2.47;2.27;;;;;;;17.67;49.42;99016.34;6948033;28;20230;-78
2022/06/02 04:24:20;;;;;;;2.77;2.40;;;;;;;17.87;49.27;99008.53;6949603;28;20205;-78
2022/06/02 04:27:47;;;;;;;3.17;2.30;;;;;;;18.13;48.45;99017.97;6966114;28;20217;-78
2022/06/02 04:31:20;;;;;;;2.60;2.40;;;;;;;17.86;49.74;99003.34;6978385;28;20241;-78
2022/06/02 04:34:50;;;;;;;2.33;2.17;;;;;;;18.07;48.72;99008.88;6978870;28;20209;-78
2022/06/02 04:38:19;;;;;;;5.47;2.67;;;;;;;18.10;47.50;99010.28;6976560;28;20274;-78
2022/06/02 04:41:47;;;;;;;2.93;2.60;;;;;;;18.15;48.44;99007.63;6953134;28;20250;-79
2022/06/02 04:45:15;;;;;;;2.80;2.60;;;;;;;17.88;49.02;99021.09;6944838;28;20211;-78
2022/06/02 04:48:44;;;;;;;2.87;2.50;;;;;;;17.94;49.44;99000.19;6948676;28;20211;-78
2022/06/02 04:52:11;;;;;;;2.53;2.33;;;;;;;18.57;47.97;99025.25;6949217;28;20206;-78
2022/06/02 04:55:42;;;;;;;4.13;2.00;;;;;;;18.91;46.63;98999.50;6950229;28;20220;-78
2022/06/02 04:59:11;;;;;;;3.83;3.43;;;;;;;19.64;44.65;98999.84;6949395;28;20231;-80
2022/06/02 05:02:44;;;;;;;2.73;2.40;;;;;;;19.79;44.06;99009.03;6953355;28;20222;-79
2022/06/02 05:06:12;;;;;;;2.53;2.27;;;;;;;19.49;45.50;99021.56;6959444;28;20230;-78
2022/06/02 05:09:37;;;;;;;2.53;2.30;;;;;;;19.80;44.51;99009.88;6941230;28;20235;-78
2022/06/02 05:13:04;;;;;;;4.00;2.20;;;;;;;20.49;42.93;99009.66;6947166;28;20211;-78
2022/06/02 05:16:28;;;;;;;2.20;1.87;;;;;;;21.05;41.16;98997.13;6946617;28;20203;-78
2022/06/02 05:20:13;;;;;;;3.10;2.20;;;;;;;21.42;41.42;99026.88;6948711;28;20223;-78
2022/06/02 05:24:03;;;;;;;4.50;2.53;;;;;;;21.35;41.18;99030.94;6972332;28;20202;-79
2022/06/02 05:27:57;;;;;;;1.93;1.80;;;;;;;22.08;39.17;99042.41;6960761;28;20212;-78
2022/06/02 05:31:41;;;;;;;4.17;2.30;;;;;;;21.23;40.84;99049.56;6982165;28;20227;-78
2022/06/02 05:35:23;;;;;;;3.43;2.27;;;;;;;21.56;40.67;99049.97;6956356;28;20203;-76
2022/06/02 05:38:53;;;;;;;2.73;1.90;;;;;;;21.85;38.88;99039.38;6975963;28;20573;-76
2022/06/02 05:42:29;;;;;;;3.97;2.17;;;;;;;22.68;37.46;99034.19;6976977;28;20229;-78
2022/06/02 05:45:59;;;;;;;2.47;2.17;;;;;;;22.97;37.21;99054.50;6976853;28;20194;-78
2022/06/02 05:49:27;;;;;;;2.97;1.97;;;;;;;22.93;35.58;99027.81;6975033;28;20233;-79
2022/06/02 05:52:56;;;;;;;3.00;2.00;;;;;;;23.27;35.12;99048.09;6976454;28;20194;-78
2022/06/02 05:56:27;;;;;;;1.97;1.87;;;;;;;23.58;33.55;99042.16;6976584;28;20642;-77
2022/06/02 06:00:00;;;;;;;2.47;2.17;;;;;;;23.76;34.43;99051.69;6969449;28;20227;-78
2022/06/02 06:03:41;;;;;;;2.30;2.10;;;;;;;23.69;33.59;99020.91;6948764;28;20305;-79
2022/06/02 06:07:09;;;;;;;4.37;3.57;;;;;;;24.51;30.90;99045.69;6949181;28;20185;-79
2022/06/02 06:10:37;;;;;;;2.70;1.80;;;;;;;22.90;34.22;99001.69;6948055;28;20233;-76
2022/06/02 06:14:15;;;;;;;2.37;1.97;;;;;;;23.86;32.95;99016.69;6949196;28;20198;-77
2022/06/02 06:17:43;;;;;;;2.83;1.73;;;;;;;24.31;31.76;99035.66;6953394;28;20218;-77
2022/06/02 06:21:12;;;;;;;3.07;1.73;;;;;;;24.02;32.51;99039.47;6976026;28;20225;-77
2022/06/02 06:24:50;;;;;;;1.93;1.60;;;;;;;24.46;31.76;99054.00;6976136;28;20197;-78
2022/06/02 06:28:15;;;;;;;2.40;1.87;;;;;;;24.40;32.13;99050.47;6959982;28;20226;-77
2022/06/02 06:31:45;;;;;;;2.37;1.93;;;;;;;23.32;32.50;99045.31;6948850;28;20285;-77
2022/06/02 06:35:15;;;;;;;1.80;1.70;;;;;;;23.32;32.08;99048.91;6948055;28;20180;-77
2022/06/02 06:38:53;;;;;;;2.53;1.80;;;;;;;23.45;31.96;99040.03;6969085;28;20565;-78
2022/06/02 06:42:35;;;;;;;2.53;2.07;;;;;;;22.58;33.44;99072.69;6976327;28;20238;-77
2022/06/02 06:46:16;;;;;;;4.80;1.70;;;;;;;23.69;32.74;99057.53;6953089;28;20654;-76
2022/06/02 06:49:53;;;;;;;3.33;1.70;;;;;;;25.02;30.28;99050.44;6952193;28;20250;-77
2022/06/02 06:53:30;;;;;;;2.20;1.80;;;;;;;23.29;32.21;99037.63;6953514;28;20220;-77
2022/06/02 06:56:53;;;;;;;3.07;1.83;;;;;;;24.54;30.21;99048.69;6953023;28;20745;-77
2022/06/02 07:00:19;;;;;;;2.30;1.73;;;;;;;24.05;30.98;99027.84;6968157;28;20717;-76
2022/06/02 07:03:50;;;;;;;3.17;1.83;;;;;;;24.75;30.19;99047.44;6976135;28;20303;-79
2022/06/02 07:07:17;;;;;;;2.10;1.70;;;;;;;23.81;31.30;99041.50;6955764;28;20191;-79
2022/06/02 07:10:44;;;;;;;1.73;1.63;;;;;;;25.68;28.88;99054.09;6953202;28;20231;-78
2022/06/02 07:14:11;;;;;;;2.93;1.90;;;;;;;26.14;27.46;99041.28;6954047;28;20290;-78
2022/06/02 07:17:38;;;;;;;1.57;1.50;;;;;;;25.06;29.84;99042.41;6953149;28;20196;-79
2022/06/02 07:21:07;;;;;;;2.33;1.90;;;;;;;25.73;28.89;99023.63;6952413;28;20235;-77
2022/06/02 07:24:35;;;;;;;1.93;1.70;;;;;;;25.74;27.65;99050.16;6952536;28;20186;-76
2022/06/02 07:28:01;;;;;;;2.20;2.00;;;;;;;24.13;30.44;99047.34;6952015;28;20246;-78
2022/06/02 07:31:34;;;;;;;2.20;1.70;;;;;;;25.02;28.93;99042.16;6964076;28;20233;-78
2022/06/02 07:35:16;;;;;;;2.40;1.90;;;;;;;23.86;29.54;99019.44;6979406;28;20274;-76
2022/06/02 07:39:00;;;;;;;6.30;2.10;;;;;;;24.62;29.66;99039.84;6977748;28;20725;-78
2022/06/02 07:42:35;;;;;;;3.77;1.90;;;;;;;24.96;29.34;99034.25;6980630;28;20214;-78
2022/06/02 07:46:10;;;;;;;3.57;1.73;;;;;;;24.33;30.64;99038.13;6980015;28;20277;-78
2022/06/02 07:49:42;;;;;;;4.17;1.97;;;;;;;25.55;29.03;99038.22;6979318;28;20230;-78
2022/06/02 07:53:12;;;;;;;2.50;2.00;;;;;;;25.24;29.07;99044.44;6979904;28;20242;-78
2022/06/02 07:56:44;;;;;;;3.20;2.00;;;;;;;26.03;27.62;99044.50;6980358;28;20191;-78
2022/06/02 08:00:14;;;;;;;2.90;2.60;;;;;;;26.73;27.04;99032.31;6978708;28;20235;-76
2022/06/02 08:04:03;;;;;;;2.87;1.57;;;;;;;25.41;28.87;99026.28;6977633;28;20206;-76
2022/06/02 08:07:27;;;;;;;3.07;2.00;;;;;;;25.64;28.51;99039.22;6961948;28;20649;-76
2022/06/02 08:11:03;;;;;;;4.10;2.27;;;;;;;26.56;27.90;99032.06;6951490;28;20598;-76
2022/06/02 08:14:31;;;;;;;2.40;2.10;;;;;;;25.34;30.12;99038.78;6951026;28;20199;-77
2022/06/02 08:17:58;;;;;;;2.90;1.93;;;;;;;26.18;27.98;99019.41;6944076;28;20202;-77
2022/06/02 08:21:25;;;;;;;3.87;1.97;;;;;;;26.52;28.19;99031.81;6956385;28;20230;-77
2022/06/02 08:25:06;;;;;;;1.90;1.70;;;;;;;27.69;26.79;99029.28;6954473;28;20240;-77
2022/06/02 08:28:41;;;;;;;4.40;1.87;;;;;;;27.22;27.18;99036.09;6922786;28;20188;-77
2022/06/02 08:32:18;;;;;;;1.67;1.57;;;;;;;25.21;29.22;99042.22;6939049;28;20210;-77
2022/06/02 08:35:44;;;;;;;2.63;1.60;;;;;;;24.48;30.83;99036.06;6978719;28;20230;-77
2022/06/02 08:39:25;;;;;;;4.60;1.90;;;;;;;26.19;28.05;99021.06;6977943;28;20233;-77
2022/06/02 08:43:12;;;;;;;2.07;1.60;;;;;;;26.07;27.36;99051.09;6978526;28;20269;-77
2022/06/02 08:46:53;;;;;;;2.23;1.57;;;;;;;27.30;26.69;99040.13;6948931;28;20202;-78
2022/06/02 08:50:43;;;;;;;2.40;1.63;;;;;;;27.04;26.75;99033.38;6965554;28;20231;-77
2022/06/02 08:54:44;;;;;;;1.33;1.23;;;;;;;28.70;24.47;99039.66;6978075;28;20217;-78
2022/06/02 08:58:37;;;;;;;4.20;1.70;;;;;;;28.88;24.55;99027.50;6978336;28;20581;-78
2022/06/02 09:02:09;;;;;;;5.37;1.60;;;;;;;28.93;24.16;99025.44;6979513;28;20761;-77
2022/06/02 09:06:08;;;;;;;2.63;1.50;;;;;;;27.89;24.17;99037.19;6979590;28;20198;-79
2022/06/02 09:09:45;;;;;;;2.23;1.67;;;;;;;28.10;24.91;99036.41;6975940;28;20244;-78
2022/06/02 09:13:34;;;;;;;6.60;3.93;;;;;;;28.45;24.29;99041.13;6955159;28;20608;-77
2022/06/02 09:17:00;;;;;;;7.27;2.23;;;;;;;28.35;25.63;99032.19;6969239;28;20570;-77
2022/06/02 09:20:37;;;;;;;1.73;1.63;;;;;;;27.43;24.88;99029.00;6956564;28;20715;-76
2022/06/02 09:24:07;;;;;;;1.50;1.40;;;;;;;28.37;24.84;99025.22;6950354;28;20187;-76
2022/06/02 09:28:04;;;;;;;2.23;1.90;;;;;;;25.20;27.65;99044.16;6949231;28;20204;-77
2022/06/02 09:31:55;;;;;;;2.27;1.60;;;;;;;26.15;26.59;99044.88;6949426;28;20257;-77
2022/06/02 09:35:20;;;;;;;4.00;1.47;;;;;;;26.86;25.95;99051.72;6949290;28;20286;-77
2022/06/02 09:39:05;;;;;;;1.70;1.60;;;;;;;28.79;24.25;99033.00;6949269;28;20206;-77
2022/06/02 09:42:54;;;;;;;1.50;1.40;;;;;;;28.76;24.48;99030.88;6949472;28;20189;-77
2022/06/02 09:46:55;;;;;;;3.70;1.60;;;;;;;29.63;23.22;99033.75;6922299;28;20254;-77
2022/06/02 09:50:34;;;;;;;1.30;1.20;;;;;;;30.26;22.81;99026.50;6952607;28;20239;-78
2022/06/02 09:54:08;;;;;;;1.93;1.47;;;;;;;29.95;22.61;99042.50;6969964;28;20208;-78
2022/06/02 09:57:57;;;;;;;2.67;1.70;;;;;;;28.85;23.59;99039.25;6983207;28;20212;-78
2022/06/02 10:01:29;;;;;;;2.90;1.53;;;;;;;30.30;22.14;99024.69;6979920;28;20245;-78
2022/06/02 10:05:06;;;;;;;1.40;1.30;;;;;;;29.88;21.77;99038.53;6986396;28;20239;-78
2022/06/02 10:08:38;;;;;;;1.90;1.40;;;;;;;27.53;24.94;99039.03;6969359;28;20216;-78
2022/06/02 10:16:18;;;;;;;2.83;1.40;;;;;;;29.82;22.34;99015.66;6949672;28;20245;-79
2022/06/02 10:20:12;;;;;;;2.10;1.50;;;;;;;28.49;23.82;99016.34;6930255;28;20289;-77
2022/06/02 10:24:08;;;;;;;2.20;1.40;;;;;;;29.42;22.69;99008.50;6955215;28;20270;-77
2022/06/02 10:27:59;;;;;;;2.10;1.40;;;;;;;28.76;23.36;98996.75;6929799;28;20686;-78
2022/06/02 10:31:46;;;;;;;2.50;1.60;;;;;;;28.21;23.85;98999.00;6956370;28;20237;-78
2022/06/02 10:35:30;;;;;;;1.60;1.40;;;;;;;27.95;23.47;98997.16;6971251;28;20212;-78
2022/06/02 10:39:03;;;;;;;3.10;1.87;;;;;;;27.47;23.87;98987.66;6958397;28;20213;-78
2022/06/02 10:42:41;;;;;;;1.93;1.50;;;;;;;28.90;22.92;98987.19;6957792;28;20236;-78
2022/06/02 10:46:20;;;;;;;1.77;1.37;;;;;;;29.40;22.63;98993.28;6959049;28;20356;-78
2022/06/02 10:49:53;;;;;;;4.00;1.50;;;;;;;29.63;21.95;98990.13;6953963;28;20649;-78
2022/06/02 10:53:43;;;;;;;1.60;1.33;;;;;;;26.52;25.57;98995.88;6979145;28;20364;-78
2022/06/02 10:57:26;;;;;;;1.70;1.30;;;;;;;29.67;23.24;98990.28;6986206;28;20227;-78
2022/06/02 11:01:06;;;;;;;3.80;1.70;;;;;;;30.69;21.84;99001.44;6986376;28;20233;-78
2022/06/02 11:05:12;;;;;;;1.77;1.30;;;;;;;28.45;23.06;98991.19;7000801;28;20228;-77
2022/06/02 11:09:09;;;;;;;2.03;1.50;;;;;;;30.19;22.69;98983.66;6947828;28;20214;-78
2022/06/02 11:13:09;;;;;;;3.50;1.80;;;;;;;29.95;23.14;98986.88;6981613;28;20189;-78
2022/06/02 11:17:00;;;;;;;1.50;1.40;;;;;;;30.68;21.70;98986.72;6953629;28;20205;-78
2022/06/02 11:20:46;;;;;;;1.90;1.40;;;;;;;30.86;21.69;98974.38;6946630;28;20242;-77
2022/06/02 11:24:28;;;;;;;5.10;1.77;;;;;;;30.68;21.64;98967.22;6950152;28;20261;-77
2022/06/02 11:28:16;;;;;;;2.73;1.77;;;;;;;29.89;22.43;98970.69;6952480;28;20201;-77
2022/06/02 11:32:02;;;;;;;1.40;1.27;;;;;;;31.01;21.66;98962.66;6954424;28;20695;-77
2022/06/02 11:35:36;;;;;;;2.27;1.43;;;;;;;30.83;22.58;98955.53;6947050;28;20267;-77
2022/06/02 11:39:27;;;;;;;1.60;1.37;;;;;;;31.32;21.62;98954.03;6933841;28;20684;-78
2022/06/02 11:43:12;;;;;;;1.87;1.50;;;;;;;30.72;21.42;98961.81;6955448;28;20229;-77
2022/06/02 11:46:48;;;;;;;2.07;1.60;;;;;;;28.73;23.88;98950.22;6978713;28;20203;-77
2022/06/02 11:50:39;;;;;;;1.83;1.53;;;;;;;28.10;25.36;98950.47;6977875;28;20228;-77
2022/06/02 11:54:10;;;;;;;1.67;1.40;;;;;;;28.89;24.60;98949.47;6921170;28;20547;-78
2022/06/02 11:57:44;;;;;;;2.70;1.67;;;;;;;28.93;24.46;98936.59;6953682;28;20361;-78
2022/06/02 12:01:28;;;;;;;1.40;1.30;;;;;;;29.18;24.07;98937.84;6978661;28;20726;-77
2022/06/02 12:05:40;;;;;;;2.57;1.50;;;;;;;28.66;24.48;98931.25;6978694;28;20189;-78
2022/06/02 12:09:30;;;;;;;2.03;1.40;;;;;;;31.19;21.75;98919.66;6879453;28;20231;-77
2022/06/02 12:13:08;;;;;;;4.77;1.80;;;;;;;28.63;23.66;98917.19;6949999;28;20212;-77
2022/06/02 12:16:51;;;;;;;2.23;1.60;;;;;;;28.12;25.52;98931.53;6950567;28;20192;-78
2022/06/02 12:20:48;;;;;;;3.37;1.27;;;;;;;29.58;23.34;98922.75;6947518;28;20359;-78
2022/06/02 12:24:32;;;;;;;1.60;1.50;;;;;;;30.42;22.93;98923.88;6950468;28;20239;-77
2022/06/02 12:28:20;;;;;;;1.60;1.50;;;;;;;30.92;22.45;98925.69;6948668;28;20201;-78
2022/06/02 12:32:03;;;;;;;3.13;1.37;;;;;;;31.31;21.37;98938.47;6949069;28;20268;-78
2022/06/02 12:35:35;;;;;;;2.03;1.40;;;;;;;30.41;22.58;98934.16;6944227;28;20200;-78
2022/06/02 12:39:09;;;;;;;3.87;1.60;;;;;;;30.72;22.35;98925.59;6949246;28;20198;-78
2022/06/02 12:42:46;;;;;;;2.03;1.60;;;;;;;31.35;22.31;98909.56;6964642;28;20203;-77
2022/06/02 12:46:23;;;;;;;1.70;1.40;;;;;;;31.61;21.68;98912.97;6950111;28;20278;-78
2022/06/02 12:50:05;;;;;;;1.53;1.43;;;;;;;32.10;21.13;98912.13;6948554;28;20234;-78
2022/06/02 12:54:00;;;;;;;2.17;1.57;;;;;;;30.71;22.47;98919.22;6949994;28;20188;-79
2022/06/02 12:58:09;;;;;;;1.50;1.40;;;;;;;30.71;22.98;98905.28;6945692;28;20733;-78
2022/06/02 13:01:45;;;;;;;3.20;1.53;;;;;;;30.74;23.50;98882.34;6947391;28;20326;-78
2022/06/02 13:05:33;;;;;;;2.17;1.40;;;;;;;31.29;22.87;98913.72;6948638;28;20212;-78
2022/06/02 13:09:30;;;;;;;2.03;1.63;;;;;;;31.41;21.54;98913.78;6925893;28;20252;-78
2022/06/02 13:13:27;;;;;;;1.90;1.50;;;;;;;31.36;22.02;98900.06;6945888;28;20296;-78
2022/06/02 13:17:05;;;;;;;1.80;1.70;;;;;;;29.62;23.17;98899.56;6949319;28;20203;-78
2022/06/02 13:20:52;;;;;;;1.53;1.43;;;;;;;28.55;25.38;98906.88;6947698;28;20222;-77
2022/06/02 13:24:57;;;;;;;1.83;1.67;;;;;;;29.11;25.02;98895.81;6949288;28;20212;-78
2022/06/02 13:28:53;;;;;;;2.03;1.53;;;;;;;28.42;25.84;98894.72;6911168;28;20288;-78
2022/06/02 13:36:19;;;;;;;3.27;1.70;;;;;;;29.40;24.06;98908.00;7028987;27;20593;-75
2022/06/02 13:40:01;;;;;;;1.50;1.40;;;;;;;28.06;26.11;98902.31;7029971;28;20198;-76
2022/06/02 13:43:51;;;;;;;1.57;1.47;;;;;;;29.00;24.92;98902.81;7030440;28;20246;-76
2022/06/02 13:48:00;;;;;;;1.30;1.20;;;;;;;30.13;24.03;98902.31;7030484;28;20212;-76
2022/06/02 13:51:51;;;;;;;1.70;1.50;;;;;;;29.46;24.98;98892.78;7030155;28;20214;-76
2022/06/02 13:59:37;;;;;;;2.33;1.40;;;;;;;29.51;23.61;98916.81;7029540;28;20228;-76
2022/06/02 14:03:31;;;;;;;1.67;1.57;;;;;;;29.83;24.21;98899.72;7029176;28;20701;-76
2022/06/02 14:06:55;;;;;;;1.73;1.60;;;;;;;29.51;23.38;98833.47;7018260;28;20199;-76
2022/06/02 14:10:47;;;;;;;1.50;1.40;;;;;;;29.94;24.09;98890.69;7012598;28;20221;-76
2022/06/02 14:14:21;;;;;;;1.70;1.60;;;;;;;30.73;22.98;98864.00;7011422;28;20218;-76
2022/06/02 14:17:59;;;;;;;2.13;1.47;;;;;;;30.97;23.51;98852.25;7018911;28;20270;-77
2022/06/02 14:21:34;;;;;;;1.60;1.50;;;;;;;31.79;22.79;98867.09;7026319;28;20202;-77
2022/06/02 14:25:02;;;;;;;1.70;1.50;;;;;;;30.11;23.61;98839.81;7014605;28;20365;-76
2022/06/02 14:28:32;;;;;;;1.60;1.50;;;;;;;30.19;24.15;98872.38;7013694;28;20203;-76
2022/06/02 14:31:58;;;;;;;2.57;1.60;;;;;;;29.12;24.73;98848.31;7017603;28;20190;-77
2022/06/02 14:35:47;;;;;;;3.33;1.67;;;;;;;29.67;24.61;98871.56;7027151;28;20232;-76
2022/06/02 14:39:18;;;;;;;4.33;1.60;;;;;;;29.80;25.43;98869.78;7028440;28;20207;-77
2022/06/02 14:43:06;;;;;;;1.50;1.30;;;;;;;29.56;25.15;98873.06;7028857;28;20214;-76
2022/06/02 14:46:44;;;;;;;1.53;1.40;;;;;;;28.82;25.48;98887.22;7014008;28;20217;-76
2022/06/02 14:50:22;;;;;;;2.40;1.90;;;;;;;28.44;26.27;98878.59;7009451;28;20204;-75
2022/06/02 14:54:07;;;;;;;3.70;2.30;;;;;;;28.67;25.23;98882.91;7006776;28;20235;-75
2022/06/02 14:57:40;;;;;;;2.20;1.70;;;;;;;29.32;25.14;98880.19;7004786;28;20208;-76
2022/06/02 15:01:11;;;;;;;2.50;1.57;;;;;;;29.41;24.94;98886.56;6993936;28;20609;-76
2022/06/02 15:04:59;;;;;;;1.67;1.57;;;;;;;30.34;23.80;98878.22;7008376;28;20241;-75
2022/06/02 15:08:45;;;;;;;2.20;1.50;;;;;;;30.43;24.46;98870.63;6980241;28;20204;-76
2022/06/02 15:12:34;;;;;;;3.53;1.77;;;;;;;29.76;24.37;98874.34;6992782;28;20194;-76
2022/06/02 15:16:08;;;;;;;1.70;1.60;;;;;;;30.04;24.75;98873.69;6991562;28;20236;-75
2022/06/02 15:19:53;;;;;;;2.13;1.70;;;;;;;30.63;24.13;98881.06;6994489;28;20223;-76
2022/06/02 15:23:54;;;;;;;2.93;1.80;;;;;;;30.28;24.20;98850.88;6966088;28;20224;-79
2022/06/02 15:27:34;;;;;;;3.30;1.83;;;;;;;30.20;24.95;98818.34;6987570;28;20210;-76
2022/06/02 15:31:12;;;;;;;3.00;1.90;;;;;;;30.37;23.93;98860.84;6978524;28;20213;-76
2022/06/02 15:34:53;;;;;;;2.70;1.60;;;;;;;30.62;24.71;98846.03;6987121;28;20673;-79
2022/06/02 15:38:41;;;;;;;2.53;1.40;;;;;;;30.76;24.13;98848.59;6978459;28;20200;-77
2022/06/02 15:42:37;;;;;;;2.00;1.80;;;;;;;28.95;26.47;98837.16;6978234;28;20564;-77
2022/06/02 15:46:17;;;;;;;2.13;1.60;;;;;;;28.36;27.38;98837.72;6978268;28;20563;-76
2022/06/02 15:49:52;;;;;;;3.20;1.53;;;;;;;28.81;27.29;98816.19;6976432;28;20212;-76
2022/06/02 15:53:34;;;;;;;3.80;1.90;;;;;;;28.78;27.24;98786.31;6981436;28;20364;-80
2022/06/02 15:57:30;;;;;;;1.93;1.73;;;;;;;29.31;26.72;98771.03;7006378;28;20286;-76
2022/06/02 16:01:28;;;;;;;3.33;1.80;;;;;;;29.05;28.69;98811.03;7007408;28;20218;-76
2022/06/02 16:05:38;;;;;;;3.37;1.70;;;;;;;29.09;27.65;98807.31;7007949;28;20214;-76
2022/06/02 16:13:58;;;;;;;3.30;1.67;;;;;;;29.04;26.96;98718.59;6968798;28;20215;-78
2022/06/02 16:21:39;;;;;;;1.73;1.53;;;;;;;29.42;27.13;98794.56;7000806;28;20213;-75
2022/06/02 16:25:24;;;;;;;2.90;1.53;;;;;;;29.73;26.01;98823.00;7006651;28;20228;-75
2022/06/02 16:29:14;;;;;;;4.13;1.63;;;;;;;29.46;26.69;98815.00;6994968;28;20205;-77
2022/06/02 16:32:52;;;;;;;2.23;1.60;;;;;;;29.70;27.08;98812.56;6956284;28;20212;-77
2022/06/02 16:36:25;;;;;;;2.60;1.60;;;;;;;29.76;26.46;98825.13;6978773;28;20229;-77
2022/06/02 16:39:57;;;;;;;4.90;1.77;;;;;;;30.03;26.58;98824.78;6978300;28;20207;-77
2022/06/02 16:43:38;;;;;;;1.67;1.57;;;;;;;29.92;26.79;98823.47;6978933;28;20230;-77
2022/06/02 16:47:13;;;;;;;5.23;1.57;;;;;;;29.96;25.94;98818.88;7001454;28;20216;-77
2022/06/02 16:51:01;;;;;;;3.63;2.10;;;;;;;28.91;27.41;98794.47;7006569;28;20210;-77
2022/06/02 16:54:35;;;;;;;1.70;1.60;;;;;;;29.29;27.48;98809.44;7006985;28;20230;-77
2022/06/02 16:58:24;;;;;;;2.30;1.50;;;;;;;29.59;26.84;98796.53;7005993;28;20213;-76
2022/06/02 17:01:54;;;;;;;3.50;2.00;;;;;;;29.72;26.06;98815.81;7000019;28;20205;-76
2022/06/02 17:05:35;;;;;;;5.07;3.93;;;;;;;28.85;27.41;98825.53;6977968;28;20306;-76
2022/06/02 17:09:20;;;;;;;1.77;1.67;;;;;;;29.26;27.08;98812.84;6978334;28;20209;-76
2022/06/02 17:12:45;;;;;;;2.83;1.57;;;;;;;29.50;26.67;98818.75;6978058;28;20668;-77
2022/06/02 17:16:32;;;;;;;3.77;2.07;;;;;;;29.62;27.81;98815.34;6978242;28;20231;-77
2022/06/02 17:20:44;;;;;;;2.20;1.80;;;;;;;29.66;27.61;98811.56;6993219;28;20202;-76
2022/06/02 17:24:31;;;;;;;3.50;1.60;;;;;;;29.75;26.64;98815.16;6949883;28;20234;-77
2022/06/02 17:28:11;;;;;;;1.80;1.60;;;;;;;29.86;26.96;98790.59;6977547;28;20215;-76
2022/06/02 17:31:53;;;;;;;2.43;1.70;;;;;;;29.64;26.61;98807.47;6978165;28;20204;-76